createdAt,value
2023-02-22T00:01:01.361Z,95.59
2023-02-22T00:02:04.285Z,95.56
2023-02-22T00:03:08.536Z,95.60
2023-02-22T00:04:12.640Z,95.62
2023-02-22T00:05:16.776Z,95.66
2023-02-22T00:06:20.971Z,95.67
2023-02-22T00:07:25.152Z,95.68
2023-02-22T00:08:29.374Z,95.67
2023-02-22T00:09:33.444Z,95.67
2023-02-22T00:10:37.742Z,95.71
2023-02-22T00:11:47.871Z,95.65
2023-02-22T00:12:50.600Z,95.65
2023-02-22T00:13:54.880Z,95.63
2023-02-22T00:14:59.017Z,95.63
2023-02-22T00:16:03.280Z,95.61
2023-02-22T00:17:07.397Z,95.57
2023-02-22T00:18:11.594Z,95.54
2023-02-22T00:19:15.816Z,95.31
2023-02-22T00:20:19.963Z,95.08
2023-02-22T00:21:24.143Z,94.86
2023-02-22T00:22:34.500Z,94.70
2023-02-22T00:23:37.148Z,94.44
2023-02-22T00:24:41.370Z,94.29
2023-02-22T00:25:45.531Z,94.23
2023-02-22T00:26:49.709Z,94.27
2023-02-22T00:27:53.908Z,94.41
2023-02-22T00:28:58.072Z,94.51
2023-02-22T00:30:02.245Z,94.66
2023-02-22T00:31:06.421Z,94.81
2023-02-22T00:32:10.702Z,94.98
2023-02-22T00:33:14.862Z,95.15
2023-02-22T00:34:19.162Z,95.29
2023-02-22T00:35:23.265Z,95.28
2023-02-22T00:36:27.459Z,95.18
2023-02-22T00:37:31.685Z,95.15
2023-02-22T00:38:36.017Z,95.17
2023-02-22T00:39:40.127Z,95.26
2023-02-22T00:40:44.215Z,95.35
2023-02-22T00:41:48.503Z,95.47
2023-02-22T00:42:52.669Z,95.60
2023-02-22T00:43:56.782Z,95.72
2023-02-22T00:45:00.984Z,95.83
2023-02-22T00:46:05.245Z,95.95
2023-02-22T00:47:09.399Z,96.07
2023-02-22T00:48:13.625Z,96.12
2023-02-22T00:49:17.791Z,96.22
2023-02-22T00:50:22.018Z,96.22
2023-02-22T00:51:26.193Z,96.06
2023-02-22T00:52:30.393Z,95.89
2023-02-22T00:53:34.729Z,95.78
2023-02-22T00:54:38.852Z,95.78
2023-02-22T00:55:43.026Z,95.76
2023-02-22T00:56:47.226Z,95.67
2023-02-22T00:57:51.500Z,95.59
2023-02-22T00:58:55.649Z,95.55
2023-02-22T00:59:59.811Z,95.58
2023-02-22T01:01:10.091Z,95.62
2023-02-22T01:02:12.802Z,95.67
2023-02-22T01:03:16.908Z,95.74
2023-02-22T01:04:21.059Z,95.79
2023-02-22T01:05:25.265Z,95.81
2023-02-22T01:06:29.468Z,95.90
2023-02-22T01:07:33.629Z,95.98
2023-02-22T01:08:37.842Z,96.04
2023-02-22T01:09:42.002Z,96.11
2023-02-22T01:10:46.182Z,96.18
2023-02-22T01:11:50.450Z,96.26
2023-02-22T01:12:54.631Z,96.35
2023-02-22T01:13:58.835Z,96.45
2023-02-22T01:15:03.035Z,96.52
2023-02-22T01:16:07.231Z,96.56
2023-02-22T01:17:11.395Z,96.53
2023-02-22T01:18:15.614Z,96.48
2023-02-22T01:19:19.766Z,96.44
2023-02-22T01:20:23.973Z,96.40
2023-02-22T01:21:28.283Z,96.38
2023-02-22T01:22:32.420Z,96.40
2023-02-22T01:23:36.712Z,96.41
2023-02-22T01:24:40.838Z,96.41
2023-02-22T01:25:45.014Z,96.23
2023-02-22T01:26:49.240Z,96.01
2023-02-22T01:27:53.435Z,95.77
2023-02-22T01:28:57.664Z,95.53
2023-02-22T01:30:01.917Z,95.39
2023-02-22T01:31:06.115Z,95.29
2023-02-22T01:32:10.266Z,95.25
2023-02-22T01:33:14.382Z,95.22
2023-02-22T01:34:18.564Z,95.24
2023-02-22T01:35:22.664Z,95.29
2023-02-22T01:36:26.946Z,95.41
2023-02-22T01:37:31.110Z,95.52
2023-02-22T01:38:35.424Z,95.64
2023-02-22T01:39:39.483Z,95.75
2023-02-22T01:40:43.658Z,95.84
2023-02-22T01:41:47.927Z,95.91
2023-02-22T01:42:52.053Z,95.97
2023-02-22T01:43:56.239Z,96.04
2023-02-22T01:45:00.328Z,96.10
2023-02-22T01:46:04.569Z,96.15
2023-02-22T01:47:08.726Z,96.19
2023-02-22T01:48:12.927Z,96.22
2023-02-22T01:49:17.124Z,96.24
2023-02-22T01:50:21.345Z,96.26
2023-02-22T01:51:25.506Z,96.27
2023-02-22T01:52:29.658Z,96.23
2023-02-22T01:53:33.881Z,96.20
2023-02-22T01:54:38.047Z,96.18
2023-02-22T01:55:42.228Z,96.16
2023-02-22T01:58:13.434Z,96.04
2023-02-22T01:59:17.522Z,95.91
2023-02-22T02:00:21.727Z,95.78
2023-02-22T02:01:25.922Z,95.68
2023-02-22T02:02:30.111Z,95.58
2023-02-22T02:03:34.366Z,95.56
2023-02-22T02:04:38.516Z,95.59
2023-02-22T02:05:42.463Z,95.67
2023-02-22T02:06:46.650Z,95.75
2023-02-22T02:07:50.846Z,95.83
2023-02-22T02:08:55.044Z,95.92
2023-02-22T02:09:59.196Z,96.05
2023-02-22T02:11:03.368Z,96.16
2023-02-22T02:12:07.539Z,96.28
2023-02-22T02:13:11.646Z,96.33
2023-02-22T02:14:15.831Z,96.38
2023-02-22T02:15:20.018Z,96.49
2023-02-22T02:16:24.357Z,96.47
2023-02-22T02:17:28.411Z,96.47
2023-02-22T02:18:32.634Z,96.47
2023-02-22T02:19:36.782Z,96.48
2023-02-22T02:20:40.926Z,96.47
2023-02-22T02:21:45.100Z,96.39
2023-02-22T02:22:49.277Z,96.48
2023-02-22T02:23:53.473Z,96.48
2023-02-22T02:24:57.718Z,96.48
2023-02-22T02:26:01.992Z,96.51
2023-02-22T02:27:06.211Z,96.50
2023-02-22T02:28:10.341Z,96.50
2023-02-22T02:29:14.515Z,96.57
2023-02-22T02:30:21.757Z,96.43
2023-02-22T02:31:25.036Z,96.39
2023-02-22T02:32:29.177Z,96.33
2023-02-22T02:33:33.335Z,96.27
2023-02-22T02:34:37.503Z,96.22
2023-02-22T02:35:41.711Z,96.18
2023-02-22T02:36:45.884Z,96.07
2023-02-22T02:37:50.131Z,96.11
2023-02-22T02:38:54.287Z,96.11
2023-02-22T02:39:58.421Z,96.06
2023-02-22T02:41:02.585Z,96.05
2023-02-22T02:42:06.756Z,96.03
2023-02-22T02:43:10.937Z,96.00
2023-02-22T02:44:15.143Z,95.95
2023-02-22T02:45:19.344Z,95.90
2023-02-22T02:46:23.477Z,95.87
2023-02-22T02:47:27.712Z,95.76
2023-02-22T02:48:31.888Z,95.64
2023-02-22T02:49:36.081Z,95.54
2023-02-22T02:50:40.237Z,95.50
2023-02-22T02:51:44.295Z,95.48
2023-02-22T02:52:48.653Z,95.47
2023-02-22T02:53:52.870Z,95.47
2023-02-22T02:54:57.000Z,95.45
2023-02-22T02:56:01.162Z,95.43
2023-02-22T02:57:05.336Z,95.44
2023-02-22T02:58:09.517Z,95.46
2023-02-22T02:59:13.764Z,95.50
2023-02-22T03:00:17.914Z,95.52
2023-02-22T03:01:22.102Z,95.56
2023-02-22T03:02:26.202Z,95.57
2023-02-22T03:03:30.364Z,95.55
2023-02-22T03:04:34.629Z,95.50
2023-02-22T03:05:38.712Z,95.44
2023-02-22T03:06:42.844Z,95.40
2023-02-22T03:07:47.026Z,95.43
2023-02-22T03:08:51.270Z,95.46
2023-02-22T03:09:55.453Z,95.48
2023-02-22T03:10:59.719Z,95.52
2023-02-22T03:12:03.769Z,95.56
2023-02-22T03:13:08.032Z,95.63
2023-02-22T03:14:12.225Z,95.65
2023-02-22T03:15:16.451Z,95.67
2023-02-22T03:16:20.621Z,95.65
2023-02-22T03:17:24.766Z,95.72
2023-02-22T03:18:29.054Z,95.74
2023-02-22T03:19:33.127Z,95.70
2023-02-22T03:20:37.321Z,95.70
2023-02-22T03:21:41.518Z,95.71
2023-02-22T03:22:45.690Z,95.72
2023-02-22T03:23:49.954Z,95.69
2023-02-22T03:24:54.114Z,95.71
2023-02-22T03:25:58.283Z,95.70
2023-02-22T03:27:02.565Z,95.69
2023-02-22T03:28:06.614Z,95.65
2023-02-22T03:29:10.894Z,95.58
2023-02-22T03:30:15.056Z,95.40
2023-02-22T03:31:19.563Z,95.27
2023-02-22T03:32:23.377Z,95.22
2023-02-22T03:33:27.579Z,95.23
2023-02-22T03:34:31.676Z,95.30
2023-02-22T03:35:35.864Z,95.37
2023-02-22T03:36:40.025Z,95.46
2023-02-22T03:37:44.200Z,95.56
2023-02-22T03:39:02.444Z,95.57
2023-02-22T03:40:05.360Z,95.73
2023-02-22T03:41:09.365Z,95.79
2023-02-22T03:42:13.459Z,95.84
2023-02-22T03:43:17.591Z,95.69
2023-02-22T03:44:21.872Z,95.61
2023-02-22T03:45:25.889Z,95.59
2023-02-22T03:46:30.322Z,95.60
2023-02-22T03:47:34.328Z,95.63
2023-02-22T03:48:38.449Z,95.67
2023-02-22T03:49:42.593Z,95.72
2023-02-22T03:50:46.972Z,95.74
2023-02-22T03:51:51.062Z,95.76
2023-02-22T03:52:55.173Z,95.74
2023-02-22T03:53:59.345Z,95.75
2023-02-22T03:55:03.542Z,95.68
2023-02-22T03:56:07.752Z,95.66
2023-02-22T03:57:26.008Z,95.64
2023-02-22T03:58:28.862Z,95.65
2023-02-22T03:59:32.996Z,95.67
2023-02-22T04:00:37.122Z,95.69
2023-02-22T04:01:41.372Z,95.68
2023-02-22T04:02:45.462Z,95.66
2023-02-22T04:03:49.645Z,95.68
2023-02-22T04:04:53.805Z,95.68
2023-02-22T04:05:59.406Z,95.74
2023-02-22T04:07:03.063Z,95.74
2023-02-22T04:08:07.320Z,95.59
2023-02-22T04:09:11.614Z,95.33
2023-02-22T04:10:15.778Z,95.05
2023-02-22T04:11:19.976Z,94.86
2023-02-22T04:12:24.133Z,94.80
2023-02-22T04:13:28.267Z,94.83
2023-02-22T04:14:32.457Z,94.90
2023-02-22T04:15:36.530Z,94.95
2023-02-22T04:16:40.724Z,95.05
2023-02-22T04:17:44.964Z,95.16
2023-02-22T04:18:49.104Z,95.25
2023-02-22T04:19:53.157Z,95.33
2023-02-22T04:20:57.409Z,95.40
2023-02-22T04:22:01.538Z,95.48
2023-02-22T04:23:05.701Z,95.55
2023-02-22T04:24:09.826Z,95.59
2023-02-22T04:25:14.060Z,95.59
2023-02-22T04:26:18.202Z,95.60
2023-02-22T04:27:22.411Z,95.51
2023-02-22T04:28:26.668Z,95.38
2023-02-22T04:29:30.934Z,95.22
2023-02-22T04:30:35.093Z,95.08
2023-02-22T04:31:39.422Z,94.97
2023-02-22T04:32:43.423Z,94.92
2023-02-22T04:33:47.539Z,94.88
2023-02-22T04:34:51.696Z,94.92
2023-02-22T04:35:55.832Z,95.00
2023-02-22T04:37:00.109Z,95.13
2023-02-22T04:38:04.186Z,95.26
2023-02-22T04:39:08.481Z,95.43
2023-02-22T04:40:12.732Z,95.53
2023-02-22T04:41:17.120Z,95.61
2023-02-22T04:42:21.072Z,95.64
2023-02-22T04:43:28.200Z,95.67
2023-02-22T04:44:31.384Z,95.75
2023-02-22T04:45:35.571Z,95.77
2023-02-22T04:46:39.645Z,95.80
2023-02-22T04:47:43.987Z,95.82
2023-02-22T04:48:48.025Z,95.84
2023-02-22T04:49:52.293Z,95.90
2023-02-22T04:51:02.442Z,95.99
2023-02-22T04:52:05.213Z,96.14
2023-02-22T04:53:09.191Z,96.28
2023-02-22T04:54:13.382Z,96.41
2023-02-22T04:55:17.552Z,96.54
2023-02-22T04:56:21.760Z,96.65
2023-02-22T04:57:25.798Z,96.72
2023-02-22T04:58:29.999Z,96.80
2023-02-22T04:59:34.264Z,96.86
2023-02-22T05:00:38.296Z,96.94
2023-02-22T05:01:42.528Z,96.87
2023-02-22T05:02:46.816Z,96.79
2023-02-22T05:03:50.852Z,96.65
2023-02-22T05:04:55.081Z,96.53
2023-02-22T05:05:59.174Z,96.42
2023-02-22T05:07:03.360Z,96.35
2023-02-22T05:08:07.510Z,96.26
2023-02-22T05:09:11.837Z,96.20
2023-02-22T05:10:15.907Z,96.17
2023-02-22T05:11:20.009Z,96.15
2023-02-22T05:12:24.156Z,96.17
2023-02-22T05:13:28.280Z,96.21
2023-02-22T05:14:32.480Z,96.25
2023-02-22T05:15:36.667Z,96.31
2023-02-22T05:16:40.823Z,96.41
2023-02-22T05:17:45.023Z,96.48
2023-02-22T05:18:49.138Z,96.52
2023-02-22T05:19:53.298Z,96.59
2023-02-22T05:20:57.296Z,96.64
2023-02-22T05:22:01.429Z,96.67
2023-02-22T05:23:05.624Z,96.71
2023-02-22T05:24:09.638Z,96.76
2023-02-22T05:25:13.824Z,96.83
2023-02-22T05:26:17.956Z,96.94
2023-02-22T05:27:22.107Z,97.00
2023-02-22T05:28:26.213Z,97.06
2023-02-22T05:29:30.357Z,97.14
2023-02-22T05:30:34.602Z,97.23
2023-02-22T05:31:38.621Z,97.31
2023-02-22T05:32:42.590Z,97.41
2023-02-22T05:33:46.726Z,97.52
2023-02-22T05:34:50.955Z,97.60
2023-02-22T05:35:55.250Z,97.63
2023-02-22T05:36:59.302Z,97.63
2023-02-22T05:38:03.470Z,97.59
2023-02-22T05:39:07.597Z,97.53
2023-02-22T05:40:11.742Z,97.43
2023-02-22T05:41:16.303Z,97.35
2023-02-22T05:42:19.959Z,97.31
2023-02-22T05:43:24.182Z,97.25
2023-02-22T05:44:28.324Z,97.23
2023-02-22T05:45:32.544Z,97.22
2023-02-22T05:46:36.641Z,97.23
2023-02-22T05:47:40.778Z,97.25
2023-02-22T05:48:44.926Z,97.25
2023-02-22T05:49:52.032Z,97.31
2023-02-22T05:50:55.222Z,97.35
2023-02-22T05:51:59.276Z,97.38
2023-02-22T05:53:03.443Z,97.44
2023-02-22T05:54:07.735Z,97.50
2023-02-22T05:55:11.717Z,97.54
2023-02-22T05:56:15.904Z,97.58
2023-02-22T05:57:20.041Z,97.61
2023-02-22T05:58:24.193Z,97.57
2023-02-22T05:59:28.211Z,97.52
2023-02-22T06:00:32.321Z,97.42
2023-02-22T06:01:36.539Z,97.21
2023-02-22T06:02:40.622Z,97.19
2023-02-22T06:03:44.798Z,97.14
2023-02-22T06:04:48.913Z,97.17
2023-02-22T06:05:52.939Z,97.19
2023-02-22T06:06:56.984Z,97.24
2023-02-22T06:08:01.225Z,97.29
2023-02-22T06:09:05.339Z,97.28
2023-02-22T06:10:09.372Z,97.28
2023-02-22T06:11:13.524Z,97.30
2023-02-22T06:12:17.630Z,97.40
2023-02-22T06:13:21.735Z,97.51
2023-02-22T06:14:25.889Z,97.62
2023-02-22T06:15:30.060Z,97.75
2023-02-22T06:16:34.189Z,97.84
2023-02-22T06:17:38.215Z,97.94
2023-02-22T06:18:42.389Z,98.03
2023-02-22T06:19:46.587Z,98.13
2023-02-22T06:20:50.893Z,98.22
2023-02-22T06:21:54.930Z,98.30
2023-02-22T06:22:59.108Z,98.34
2023-02-22T06:24:03.290Z,98.39
2023-02-22T06:25:21.440Z,98.42
2023-02-22T06:26:24.204Z,98.44
2023-02-22T06:27:28.198Z,98.47
2023-02-22T06:28:32.261Z,98.50
2023-02-22T06:29:36.478Z,98.58
2023-02-22T06:30:40.694Z,98.65
2023-02-22T06:31:44.842Z,98.74
2023-02-22T06:32:48.904Z,98.84
2023-02-22T06:33:52.938Z,98.92
2023-02-22T06:34:57.174Z,99.04
2023-02-22T06:37:28.120Z,99.23
2023-02-22T06:38:32.108Z,99.31
2023-02-22T06:39:36.342Z,99.29
2023-02-22T06:40:40.497Z,99.23
2023-02-22T06:41:44.649Z,99.16
2023-02-22T06:42:48.829Z,99.15
2023-02-22T06:43:52.965Z,99.17
2023-02-22T06:44:57.043Z,99.17
2023-02-22T06:46:01.277Z,99.08
2023-02-22T06:47:05.383Z,99.04
2023-02-22T06:48:09.538Z,99.04
2023-02-22T06:49:13.718Z,99.06
2023-02-22T06:50:17.946Z,99.09
2023-02-22T06:51:21.985Z,99.14
2023-02-22T06:52:26.114Z,99.19
2023-02-22T06:53:30.307Z,99.25
2023-02-22T06:54:34.412Z,99.30
2023-02-22T06:55:38.667Z,99.34
2023-02-22T06:56:42.728Z,99.40
2023-02-22T06:57:46.925Z,99.42
2023-02-22T06:58:51.106Z,99.41
2023-02-22T06:59:55.257Z,99.38
2023-02-22T07:00:59.335Z,99.33
2023-02-22T07:02:03.548Z,99.30
2023-02-22T07:03:07.733Z,99.35
2023-02-22T07:04:11.859Z,99.31
2023-02-22T07:05:16.117Z,99.35
2023-02-22T07:06:20.225Z,99.38
2023-02-22T07:07:24.378Z,99.43
2023-02-22T07:08:28.530Z,99.45
2023-02-22T07:09:32.637Z,99.49
2023-02-22T07:10:36.855Z,99.47
2023-02-22T07:11:41.005Z,99.47
2023-02-22T07:12:45.143Z,99.46
2023-02-22T07:13:49.320Z,99.47
2023-02-22T07:15:07.680Z,99.47
2023-02-22T07:16:10.571Z,99.48
2023-02-22T07:17:14.547Z,99.52
2023-02-22T07:18:18.704Z,99.56
2023-02-22T07:19:22.816Z,99.60
2023-02-22T07:20:26.960Z,99.65
2023-02-22T07:21:31.154Z,99.70
2023-02-22T07:22:35.315Z,99.66
2023-02-22T07:23:39.401Z,99.75
2023-02-22T07:24:43.701Z,99.76
2023-02-22T07:25:47.888Z,99.75
2023-02-22T07:26:51.994Z,99.77
2023-02-22T07:27:56.090Z,99.80
2023-02-22T07:29:00.200Z,99.83
2023-02-22T07:30:04.390Z,99.87
2023-02-22T07:31:08.581Z,99.92
2023-02-22T07:32:24.796Z,99.99
2023-02-22T07:33:26.945Z,100.00
2023-02-22T07:34:31.075Z,100.00
2023-02-22T07:35:35.231Z,100.00
2023-02-22T07:36:39.465Z,100.00
2023-02-22T07:37:43.564Z,100.00
2023-02-22T07:38:48.086Z,100.00
2023-02-22T07:39:52.094Z,100.00
2023-02-22T07:42:23.343Z,100.00
2023-02-22T07:43:27.408Z,100.00
2023-02-22T07:44:31.544Z,100.00
2023-02-22T07:45:35.832Z,100.00
2023-02-22T07:46:39.805Z,100.00
2023-02-22T07:47:44.002Z,100.00
2023-02-22T07:49:02.328Z,100.00
2023-02-22T07:50:05.219Z,100.00
2023-02-22T07:51:09.281Z,100.00
2023-02-22T07:52:13.416Z,100.00
2023-02-22T07:53:17.695Z,100.00
2023-02-22T07:54:21.832Z,100.00
2023-02-22T07:55:26.018Z,100.00
2023-02-22T07:56:30.200Z,100.00
2023-02-22T07:57:34.408Z,100.00
2023-02-22T07:58:38.533Z,100.00
2023-02-22T07:59:42.713Z,100.00
2023-02-22T08:00:47.000Z,100.00
2023-02-22T08:01:51.126Z,100.00
2023-02-22T08:02:55.319Z,100.00
2023-02-22T08:03:59.566Z,100.00
2023-02-22T08:05:03.676Z,100.00
2023-02-22T08:06:08.075Z,100.00
2023-02-22T08:07:12.142Z,100.00
2023-02-22T08:08:19.415Z,100.00
2023-02-22T08:09:20.568Z,100.00
2023-02-22T08:10:24.766Z,100.00
2023-02-22T08:11:28.996Z,100.00
2023-02-22T08:12:33.178Z,100.00
2023-02-22T08:13:37.436Z,100.00
2023-02-22T08:14:41.519Z,100.00
2023-02-22T08:15:45.729Z,100.00
2023-02-22T08:16:49.900Z,100.00
2023-02-22T08:17:53.951Z,100.00
2023-02-22T08:18:58.167Z,100.00
2023-02-22T08:20:02.362Z,100.00
2023-02-22T08:21:06.527Z,100.00
2023-02-22T08:22:10.706Z,100.00
2023-02-22T08:23:14.882Z,100.00
2023-02-22T08:24:19.021Z,100.00
2023-02-22T08:25:23.261Z,100.00
2023-02-22T08:26:27.485Z,100.00
2023-02-22T08:27:31.636Z,100.00
2023-02-22T08:28:35.863Z,100.00
2023-02-22T08:29:40.047Z,100.00
2023-02-22T08:30:44.323Z,100.00
2023-02-22T08:31:48.657Z,100.00
2023-02-22T08:34:19.829Z,100.00
2023-02-22T08:35:23.868Z,100.00
2023-02-22T08:36:28.092Z,100.00
2023-02-22T08:37:32.267Z,100.00
2023-02-22T08:38:36.473Z,100.00
2023-02-22T08:39:40.646Z,100.00
2023-02-22T08:40:44.843Z,100.00
2023-02-22T08:41:48.999Z,100.00
2023-02-22T08:42:53.205Z,100.00
2023-02-22T08:43:57.418Z,100.00
2023-02-22T08:45:07.733Z,100.00
2023-02-22T08:46:10.378Z,100.00
2023-02-22T08:47:14.454Z,100.00
2023-02-22T08:48:18.716Z,100.00
2023-02-22T08:49:22.834Z,100.00
2023-02-22T08:50:27.068Z,100.00
2023-02-22T08:51:31.349Z,100.00
2023-02-22T08:52:35.622Z,100.00
2023-02-22T08:53:39.795Z,100.00
2023-02-22T08:54:44.008Z,100.00
2023-02-22T08:55:48.133Z,100.00
2023-02-22T08:56:52.278Z,100.00
2023-02-22T08:57:56.555Z,100.00
2023-02-22T08:59:00.761Z,100.00
2023-02-22T09:00:05.104Z,100.00
2023-02-22T09:01:09.291Z,100.00
2023-02-22T09:02:13.393Z,100.00
2023-02-22T09:03:17.683Z,100.00
2023-02-22T09:04:21.705Z,100.00
2023-02-22T09:05:25.981Z,100.00
2023-02-22T09:06:30.326Z,100.00
2023-02-22T09:07:34.351Z,100.00
2023-02-22T09:08:41.636Z,100.00
2023-02-22T09:09:44.916Z,100.00
2023-02-22T09:10:49.068Z,100.00
2023-02-22T09:11:53.429Z,100.00
2023-02-22T09:12:57.462Z,100.00
2023-02-22T09:14:01.695Z,100.00
2023-02-22T09:15:05.831Z,100.00
2023-02-22T09:16:10.139Z,100.00
2023-02-22T09:17:28.314Z,100.00
2023-02-22T09:18:43.475Z,100.00
2023-02-22T09:19:35.495Z,100.00
2023-02-22T09:20:39.700Z,100.00
2023-02-22T09:21:43.952Z,100.00
2023-02-22T09:22:48.157Z,100.00
2023-02-22T09:23:52.352Z,100.00
2023-02-22T09:24:58.496Z,100.00
2023-02-22T09:26:00.815Z,100.00
2023-02-22T09:27:05.099Z,100.00
2023-02-22T09:28:09.268Z,100.00
2023-02-22T09:29:13.521Z,100.00
2023-02-22T09:30:17.778Z,100.00
2023-02-22T09:31:22.583Z,100.00
2023-02-22T09:32:26.413Z,100.00
2023-02-22T09:33:30.455Z,100.00
2023-02-22T09:34:34.492Z,100.00
2023-02-22T09:35:38.668Z,100.00
2023-02-22T09:36:42.934Z,100.00
2023-02-22T09:38:01.216Z,100.00
2023-02-22T09:39:04.360Z,100.00
2023-02-22T09:40:08.529Z,100.00
2023-02-22T09:41:12.816Z,100.00
2023-02-22T09:42:16.976Z,100.00
2023-02-22T09:43:21.290Z,100.00
2023-02-22T09:44:26.394Z,100.00
2023-02-22T09:45:30.304Z,100.00
2023-02-22T09:46:34.382Z,100.00
2023-02-22T09:47:38.733Z,100.00
2023-02-22T09:48:43.095Z,100.00
2023-02-22T09:49:47.127Z,100.00
2023-02-22T09:50:51.415Z,100.00
2023-02-22T09:51:55.524Z,100.00
2023-02-22T09:52:59.811Z,100.00
2023-02-22T09:54:04.042Z,100.00
2023-02-22T09:55:08.255Z,100.00
2023-02-22T09:56:12.487Z,100.00
2023-02-22T09:57:16.699Z,100.00
2023-02-22T09:58:20.912Z,100.00
2023-02-22T09:59:25.123Z,100.00
2023-02-22T10:00:29.332Z,100.00
2023-02-22T10:01:33.561Z,100.00
2023-02-22T10:02:37.770Z,100.00
2023-02-22T10:03:42.058Z,100.00
2023-02-22T10:04:46.253Z,100.00
2023-02-22T10:05:50.445Z,100.00
2023-02-22T10:06:54.660Z,100.00
2023-02-22T10:07:58.890Z,99.88
2023-02-22T10:09:03.090Z,99.70
2023-02-22T10:10:07.276Z,99.21
2023-02-22T10:11:11.568Z,99.13
2023-02-22T10:12:15.755Z,99.08
2023-02-22T10:13:19.960Z,98.74
2023-02-22T10:14:24.228Z,98.42
2023-02-22T10:15:31.478Z,98.40
2023-02-22T10:16:34.779Z,98.42
2023-02-22T10:17:39.072Z,98.32
2023-02-22T10:18:43.198Z,98.27
2023-02-22T10:19:47.418Z,98.24
2023-02-22T10:20:51.639Z,98.21
2023-02-22T10:21:55.813Z,97.77
2023-02-22T10:23:00.039Z,97.49
2023-02-22T10:24:04.303Z,97.45
2023-02-22T10:25:09.715Z,97.38
2023-02-22T10:26:26.822Z,97.34
2023-02-22T10:27:29.801Z,97.06
2023-02-22T10:28:33.939Z,96.91
2023-02-22T10:29:38.153Z,96.87
2023-02-22T10:30:42.474Z,96.92
2023-02-22T10:31:46.732Z,96.93
2023-02-22T10:32:50.767Z,96.93
2023-02-22T10:33:55.004Z,97.04
2023-02-22T10:34:59.206Z,97.15
2023-02-22T10:36:03.584Z,96.86
2023-02-22T10:37:07.776Z,96.87
2023-02-22T10:38:11.980Z,96.58
2023-02-22T10:39:16.243Z,96.41
2023-02-22T10:40:20.423Z,96.39
2023-02-22T10:41:24.691Z,95.72
2023-02-22T10:42:28.914Z,95.44
2023-02-22T10:43:33.136Z,95.32
2023-02-22T10:44:37.349Z,95.35
2023-02-22T10:45:41.647Z,95.44
2023-02-22T10:46:45.812Z,95.45
2023-02-22T10:47:50.116Z,95.58
2023-02-22T10:48:54.305Z,95.70
2023-02-22T10:49:58.549Z,95.84
2023-02-22T10:51:02.753Z,95.72
2023-02-22T10:52:07.082Z,95.39
2023-02-22T10:53:14.286Z,95.02
2023-02-22T10:54:17.520Z,94.95
2023-02-22T10:55:21.696Z,95.05
2023-02-22T10:56:25.914Z,95.18
2023-02-22T10:57:30.144Z,95.27
2023-02-22T10:58:34.466Z,95.26
2023-02-22T10:59:38.606Z,94.86
2023-02-22T11:00:42.903Z,94.23
2023-02-22T11:01:47.136Z,93.83
2023-02-22T11:02:51.248Z,93.60
2023-02-22T11:03:55.569Z,93.40
2023-02-22T11:04:59.821Z,93.08
2023-02-22T11:06:06.281Z,93.14
2023-02-22T11:07:08.203Z,93.22
2023-02-22T11:08:12.504Z,93.22
2023-02-22T11:09:16.712Z,93.24
2023-02-22T11:10:35.031Z,93.20
2023-02-22T11:11:38.104Z,93.08
2023-02-22T11:12:48.275Z,93.07
2023-02-22T11:13:51.077Z,93.04
2023-02-22T11:14:55.214Z,92.98
2023-02-22T11:15:59.457Z,92.86
2023-02-22T11:17:03.703Z,92.81
2023-02-22T11:18:08.953Z,92.76
2023-02-22T11:19:12.104Z,92.57
2023-02-22T11:20:16.427Z,92.33
2023-02-22T11:21:20.614Z,92.10
2023-02-22T11:22:24.726Z,92.08
2023-02-22T11:23:29.027Z,92.18
2023-02-22T11:24:47.439Z,92.18
2023-02-22T11:25:37.504Z,92.20
2023-02-22T11:26:41.704Z,92.34
2023-02-22T11:27:45.920Z,92.53
2023-02-22T11:28:50.201Z,92.68
2023-02-22T11:29:54.395Z,92.86
2023-02-22T11:30:58.741Z,92.84
2023-02-22T11:32:02.956Z,92.67
2023-02-22T11:33:07.104Z,92.61
2023-02-22T11:34:11.321Z,92.49
2023-02-22T11:35:15.537Z,92.17
2023-02-22T11:36:19.780Z,92.04
2023-02-22T11:37:24.016Z,92.08
2023-02-22T11:38:28.297Z,92.07
2023-02-22T11:39:32.544Z,91.91
2023-02-22T11:40:36.733Z,92.03
2023-02-22T11:41:40.994Z,91.99
2023-02-22T11:42:45.223Z,91.83
2023-02-22T11:43:49.511Z,91.78
2023-02-22T11:44:53.820Z,91.67
2023-02-22T11:45:59.492Z,91.75
2023-02-22T11:47:02.337Z,91.94
2023-02-22T11:48:06.639Z,92.08
2023-02-22T11:49:10.952Z,91.66
2023-02-22T11:50:15.286Z,91.53
2023-02-22T11:51:19.781Z,91.13
2023-02-22T11:52:25.057Z,91.10
2023-02-22T11:53:27.833Z,90.98
2023-02-22T11:54:32.111Z,90.95
2023-02-22T11:55:43.057Z,90.73
2023-02-22T11:56:41.051Z,90.72
2023-02-22T11:57:44.964Z,90.93
2023-02-22T11:58:49.159Z,91.02
2023-02-22T11:59:53.416Z,91.01
2023-02-22T12:00:57.635Z,91.09
2023-02-22T12:02:01.849Z,91.22
2023-02-22T12:03:06.067Z,91.24
2023-02-22T12:04:10.528Z,91.24
2023-02-22T12:05:14.593Z,91.03
2023-02-22T12:06:19.065Z,90.66
2023-02-22T12:07:23.086Z,90.51
2023-02-22T12:08:27.467Z,90.43
2023-02-22T12:09:31.746Z,90.36
2023-02-22T12:10:35.922Z,90.40
2023-02-22T12:13:07.368Z,90.04
2023-02-22T12:14:11.438Z,90.03
2023-02-22T12:15:15.708Z,90.18
2023-02-22T12:16:20.349Z,90.23
2023-02-22T12:17:24.197Z,90.18
2023-02-22T12:18:28.544Z,90.23
2023-02-22T12:19:32.765Z,90.39
2023-02-22T12:20:36.979Z,90.58
2023-02-22T12:21:41.277Z,90.71
2023-02-22T12:22:45.509Z,90.79
2023-02-22T12:23:49.781Z,90.74
2023-02-22T12:25:03.978Z,90.24
2023-02-22T12:25:58.246Z,89.90
2023-02-22T12:27:04.052Z,89.57
2023-02-22T12:28:19.059Z,89.43
2023-02-22T12:29:13.073Z,89.40
2023-02-22T12:30:17.218Z,89.45
2023-02-22T12:31:21.592Z,89.45
2023-02-22T12:32:25.810Z,89.37
2023-02-22T12:33:46.087Z,89.16
2023-02-22T12:34:49.527Z,89.21
2023-02-22T12:35:53.674Z,88.84
2023-02-22T12:36:57.876Z,88.84
2023-02-22T12:38:02.106Z,88.55
2023-02-22T12:39:07.689Z,88.66
2023-02-22T12:40:10.532Z,88.52
2023-02-22T12:41:15.125Z,88.51
2023-02-22T12:42:19.030Z,88.55
2023-02-22T12:43:23.347Z,88.69
2023-02-22T12:44:30.487Z,88.79
2023-02-22T12:45:33.827Z,89.00
2023-02-22T12:46:38.220Z,89.12
2023-02-22T12:47:42.278Z,89.30
2023-02-22T12:48:46.615Z,89.34
2023-02-22T12:49:50.821Z,89.28
2023-02-22T12:50:55.092Z,89.17
2023-02-22T12:52:01.459Z,89.22
2023-02-22T12:53:03.274Z,89.23
2023-02-22T12:54:07.480Z,89.17
2023-02-22T12:55:11.739Z,88.81
2023-02-22T12:56:15.953Z,88.82
2023-02-22T12:57:20.169Z,88.83
2023-02-22T12:58:24.408Z,88.75
2023-02-22T12:59:28.704Z,88.78
2023-02-22T13:00:32.890Z,88.78
2023-02-22T13:01:37.257Z,88.90
2023-02-22T13:02:41.514Z,88.99
2023-02-22T13:03:45.735Z,89.09
2023-02-22T13:04:49.980Z,89.18
2023-02-22T13:05:54.288Z,88.99
2023-02-22T13:06:58.478Z,88.72
2023-02-22T13:08:02.770Z,88.46
2023-02-22T13:09:07.016Z,88.48
2023-02-22T13:10:11.345Z,88.54
2023-02-22T13:11:15.913Z,88.72
2023-02-22T13:12:19.761Z,88.85
2023-02-22T13:13:24.086Z,88.96
2023-02-22T13:14:28.257Z,89.10
2023-02-22T13:15:32.517Z,89.22
2023-02-22T13:16:36.755Z,89.21
2023-02-22T13:17:40.989Z,88.91
2023-02-22T13:18:45.199Z,88.89
2023-02-22T13:19:49.426Z,88.85
2023-02-22T13:20:53.667Z,88.86
2023-02-22T13:21:57.928Z,88.70
2023-02-22T13:23:02.118Z,88.74
2023-02-22T13:24:06.415Z,88.87
2023-02-22T13:25:10.633Z,88.99
2023-02-22T13:26:15.093Z,89.13
2023-02-22T13:27:19.093Z,89.24
2023-02-22T13:28:23.351Z,89.17
2023-02-22T13:29:41.611Z,89.06
2023-02-22T13:30:44.795Z,88.92
2023-02-22T13:31:49.030Z,88.94
2023-02-22T13:32:53.114Z,88.73
2023-02-22T13:33:57.327Z,88.47
2023-02-22T13:35:04.586Z,88.58
2023-02-22T13:37:35.878Z,88.37
2023-02-22T13:38:39.174Z,88.58
2023-02-22T13:39:57.413Z,88.76
2023-02-22T13:41:00.623Z,88.95
2023-02-22T13:42:04.767Z,88.89
2023-02-22T13:43:08.956Z,88.86
2023-02-22T13:44:13.229Z,88.95
2023-02-22T13:45:17.445Z,89.09
2023-02-22T13:46:21.827Z,89.19
2023-02-22T13:47:25.932Z,89.20
2023-02-22T13:48:31.167Z,89.16
2023-02-22T13:49:35.065Z,89.17
2023-02-22T13:50:39.270Z,89.25
2023-02-22T13:51:43.547Z,89.35
2023-02-22T13:52:47.879Z,89.42
2023-02-22T13:53:52.160Z,89.55
2023-02-22T13:54:56.376Z,89.71